Terminal Aerodrome Forecast
Issued by NWS

Home | Current Version | Previous Version | Graphics & Text | Print | Product List | Glossary On
Versions: 1 2 3 4 5 6 7 8 9 10 11 12 13 14 15 16 17 18 19 20 21 22 23 24 25 26 27 28 29 30 31 32 33 34 35 36 37 38 39 40 41
000
FTUS43 KLOT 311100
TAFMDW
TAF
KMDW 311140Z 3112/0112 21006KT P6SM OVC100
     FM311500 22009KT P6SM FEW150 BKN250
     FM311700 24009KT P6SM BKN040 BKN150
     FM312300 25005KT P6SM OVC020
     FM010200 02005KT 1 1/2SM -SN SCT007 OVC015
     FM010500 33003KT 1SM -SN BKN004 OVC007
     FM010800 05010KT 3/4SM -SN OVC007=

USA.gov is the U.S. government's official web portal to all federal, state and local government web resources and services.